createdAt,value
2022-10-06T00:01:55.466Z,11.79
2022-10-06T00:04:24.144Z,11.75
2022-10-06T00:06:52.835Z,11.43
2022-10-06T00:09:21.538Z,11.68
2022-10-06T00:11:50.258Z,11.71
2022-10-06T00:14:20.255Z,11.65
2022-10-06T00:16:49.014Z,11.58
2022-10-06T00:19:17.762Z,11.64
2022-10-06T00:21:46.410Z,11.62
2022-10-06T00:24:15.111Z,11.65
2022-10-06T00:26:43.797Z,11.65
2022-10-06T00:29:13.395Z,11.54
2022-10-06T00:31:43.703Z,11.58
2022-10-06T00:34:12.889Z,11.63
2022-10-06T00:36:41.602Z,11.72
2022-10-06T00:39:10.314Z,11.66
2022-10-06T00:41:40.065Z,11.62
2022-10-06T00:44:08.712Z,11.74
2022-10-06T00:46:40.182Z,11.54
2022-10-06T00:49:14.897Z,11.65
2022-10-06T00:51:47.119Z,11.57
2022-10-06T00:54:16.334Z,11.50
2022-10-06T00:56:45.443Z,11.33
2022-10-06T00:59:16.012Z,11.42
2022-10-06T01:01:51.019Z,11.37
2022-10-06T01:04:21.965Z,11.38
2022-10-06T01:06:53.221Z,11.34
2022-10-06T01:09:22.409Z,11.36
2022-10-06T01:11:52.573Z,11.30
2022-10-06T01:14:22.538Z,11.32
2022-10-06T01:16:55.709Z,11.35
2022-10-06T01:19:35.804Z,11.09
2022-10-06T01:22:05.856Z,11.40
2022-10-06T01:24:36.166Z,11.30
2022-10-06T01:27:05.556Z,11.38
2022-10-06T01:29:34.817Z,11.43
2022-10-06T01:32:03.648Z,11.44
2022-10-06T01:34:32.504Z,11.44
2022-10-06T01:37:01.138Z,11.32
2022-10-06T01:39:29.756Z,11.21
2022-10-06T01:41:59.800Z,11.29
2022-10-06T01:44:28.458Z,11.29
2022-10-06T01:46:57.150Z,11.33
2022-10-06T01:49:25.778Z,11.28
2022-10-06T01:51:54.420Z,11.34
2022-10-06T01:54:23.070Z,11.30
2022-10-06T01:56:51.750Z,11.20
2022-10-06T01:59:21.712Z,11.22
2022-10-06T02:01:50.412Z,11.21
2022-10-06T02:04:19.187Z,11.19
2022-10-06T02:06:47.823Z,11.21
2022-10-06T02:09:16.768Z,11.29
2022-10-06T02:11:45.418Z,11.15
2022-10-06T02:14:14.061Z,11.18
2022-10-06T02:16:44.082Z,11.26
2022-10-06T02:19:12.849Z,11.16
2022-10-06T02:21:41.995Z,11.17
2022-10-06T02:24:10.750Z,11.15
2022-10-06T02:26:39.571Z,11.20
2022-10-06T02:29:08.232Z,11.11
2022-10-06T02:31:36.909Z,11.05
2022-10-06T02:34:06.921Z,10.87
2022-10-06T02:36:35.707Z,10.87
2022-10-06T02:39:04.653Z,11.13
2022-10-06T02:41:33.734Z,11.08
2022-10-06T02:44:02.395Z,11.03
2022-10-06T02:46:31.540Z,10.83
2022-10-06T02:49:00.253Z,10.80
2022-10-06T02:51:31.433Z,10.89
2022-10-06T02:54:00.033Z,10.93
2022-10-06T02:56:28.832Z,11.01
2022-10-06T02:58:57.476Z,10.85
2022-10-06T03:01:27.885Z,10.76
2022-10-06T03:03:56.636Z,10.78
2022-10-06T03:06:26.913Z,10.83
2022-10-06T03:08:58.526Z,10.84
2022-10-06T03:11:29.052Z,10.91
2022-10-06T03:13:58.049Z,10.85
2022-10-06T03:16:28.028Z,10.84
2022-10-06T03:18:57.203Z,10.75
2022-10-06T03:21:27.268Z,10.63
2022-10-06T03:23:58.221Z,10.74
2022-10-06T03:26:28.989Z,10.80
2022-10-06T03:28:57.987Z,10.81
2022-10-06T03:31:27.391Z,10.68
2022-10-06T03:33:56.756Z,10.68
2022-10-06T03:36:27.829Z,10.61
2022-10-06T03:38:57.790Z,10.57
2022-10-06T03:41:28.279Z,10.60
2022-10-06T03:43:58.062Z,10.65
2022-10-06T03:46:27.986Z,10.55
2022-10-06T03:48:57.781Z,10.75
2022-10-06T03:51:29.541Z,10.69
2022-10-06T03:54:00.552Z,10.71
2022-10-06T03:56:30.707Z,10.68
2022-10-06T03:59:00.549Z,10.80
2022-10-06T04:01:31.046Z,10.86
2022-10-06T04:04:00.538Z,10.87
2022-10-06T04:06:30.967Z,10.78
2022-10-06T04:09:01.438Z,10.81
2022-10-06T04:11:31.357Z,10.85
2022-10-06T04:14:01.495Z,10.85
2022-10-06T04:16:32.046Z,10.96
2022-10-06T04:19:01.973Z,10.92
2022-10-06T04:21:31.948Z,10.90
2022-10-06T04:24:02.029Z,10.92
2022-10-06T04:26:33.168Z,11.03
2022-10-06T04:29:02.058Z,11.03
2022-10-06T04:31:32.754Z,11.16
2022-10-06T04:34:02.326Z,11.14
2022-10-06T04:36:32.464Z,11.09
2022-10-06T04:39:04.683Z,11.13
2022-10-06T04:41:35.016Z,11.22
2022-10-06T04:44:04.425Z,11.19
2022-10-06T04:46:43.812Z,11.19
2022-10-06T04:49:19.594Z,11.30
2022-10-06T04:51:49.991Z,11.27
2022-10-06T04:54:20.152Z,11.21
2022-10-06T04:56:48.909Z,11.18
2022-10-06T04:59:17.694Z,11.17
2022-10-06T05:01:46.416Z,11.12
2022-10-06T05:04:15.139Z,11.10
2022-10-06T05:06:43.840Z,11.08
2022-10-06T05:09:13.680Z,11.08
2022-10-06T05:11:43.648Z,11.09
2022-10-06T05:14:12.300Z,11.18
2022-10-06T05:16:42.921Z,11.08
2022-10-06T05:19:11.637Z,11.08
2022-10-06T05:21:40.385Z,11.03
2022-10-06T05:24:09.241Z,11.08
2022-10-06T05:26:38.150Z,11.20
2022-10-06T05:29:08.154Z,11.17
2022-10-06T05:31:38.915Z,11.10
2022-10-06T05:34:08.110Z,11.10
2022-10-06T05:36:36.909Z,10.83
2022-10-06T05:39:06.237Z,11.13
2022-10-06T05:41:37.636Z,11.17
2022-10-06T05:44:08.689Z,11.19
2022-10-06T05:46:37.336Z,11.22
2022-10-06T05:49:07.900Z,11.21
2022-10-06T05:51:37.520Z,11.20
2022-10-06T05:54:06.414Z,11.31
2022-10-06T05:56:36.830Z,11.22
2022-10-06T05:59:06.218Z,11.18
2022-10-06T06:01:37.919Z,11.16
2022-10-06T06:04:08.077Z,11.20
2022-10-06T06:06:38.013Z,11.29
2022-10-06T06:09:08.620Z,11.29
2022-10-06T06:11:39.216Z,11.35
2022-10-06T06:14:09.756Z,11.28
2022-10-06T06:16:40.206Z,11.35
2022-10-06T06:19:10.305Z,11.28
2022-10-06T06:21:39.254Z,11.30
2022-10-06T06:24:08.142Z,11.21
2022-10-06T06:26:38.225Z,11.25
2022-10-06T06:29:09.679Z,11.26
2022-10-06T06:31:43.698Z,11.38
2022-10-06T06:34:12.483Z,11.39
2022-10-06T06:36:44.905Z,11.47
2022-10-06T06:39:15.116Z,11.51
2022-10-06T06:41:46.049Z,11.52
2022-10-06T06:44:15.375Z,11.58
2022-10-06T06:46:49.162Z,11.53
2022-10-06T06:49:20.613Z,11.56
2022-10-06T06:51:50.430Z,11.56
2022-10-06T06:54:19.224Z,11.58
2022-10-06T06:56:48.832Z,11.62
2022-10-06T06:59:17.895Z,11.67
2022-10-06T07:01:48.885Z,11.65
2022-10-06T07:04:18.612Z,11.66
2022-10-06T07:06:53.223Z,11.70
2022-10-06T07:09:21.930Z,11.70
2022-10-06T07:11:51.166Z,11.76
2022-10-06T07:14:22.458Z,11.86
2022-10-06T07:17:10.012Z,11.94
2022-10-06T07:19:52.881Z,12.05
2022-10-06T07:22:40.536Z,12.16
2022-10-06T07:25:15.023Z,12.16
2022-10-06T07:27:45.297Z,12.24
2022-10-06T07:30:18.871Z,12.28
2022-10-06T07:32:50.516Z,12.35
2022-10-06T07:35:20.297Z,12.39
2022-10-06T07:37:49.596Z,12.41
2022-10-06T07:40:19.004Z,12.47
2022-10-06T07:42:52.077Z,12.51
2022-10-06T07:45:56.852Z,12.63
2022-10-06T07:48:27.078Z,12.64
2022-10-06T07:50:55.756Z,12.67
2022-10-06T07:53:28.323Z,12.74
2022-10-06T07:56:05.014Z,12.71
2022-10-06T07:58:34.288Z,12.79
2022-10-06T08:01:06.505Z,12.87
2022-10-06T08:03:37.534Z,12.83
2022-10-06T08:06:06.682Z,12.95
2022-10-06T08:08:37.065Z,12.96
2022-10-06T08:11:06.752Z,13.04
2022-10-06T08:13:37.262Z,13.11
2022-10-06T08:16:06.651Z,13.16
2022-10-06T08:18:46.425Z,13.18
2022-10-06T08:21:17.301Z,13.28
2022-10-06T08:23:47.772Z,13.32
2022-10-06T08:26:18.328Z,13.37
2022-10-06T08:28:48.574Z,13.43
2022-10-06T08:31:18.340Z,13.54
2022-10-06T08:33:49.265Z,13.63
2022-10-06T08:36:19.578Z,13.72
2022-10-06T08:38:50.498Z,13.80
2022-10-06T08:41:20.721Z,13.89
2022-10-06T08:43:56.731Z,13.89
2022-10-06T08:46:26.640Z,13.98
2022-10-06T08:48:58.388Z,14.04
2022-10-06T08:51:36.679Z,14.14
2022-10-06T08:54:11.725Z,14.24
2022-10-06T08:56:48.696Z,14.31
2022-10-06T08:59:17.385Z,14.32
2022-10-06T09:01:47.740Z,14.36
2022-10-06T09:04:22.990Z,14.40
2022-10-06T09:06:57.751Z,14.56
2022-10-06T09:09:39.226Z,14.62
2022-10-06T09:12:15.375Z,14.75
2022-10-06T09:14:48.970Z,14.85
2022-10-06T09:17:23.798Z,14.91
2022-10-06T09:19:57.823Z,14.98
2022-10-06T09:22:30.663Z,15.10
2022-10-06T09:25:02.544Z,15.17
2022-10-06T09:27:33.675Z,15.25
2022-10-06T09:30:04.583Z,15.40
2022-10-06T09:32:34.772Z,15.46
2022-10-06T09:35:18.823Z,15.50
2022-10-06T09:37:54.607Z,15.59
2022-10-06T09:40:44.477Z,15.68
2022-10-06T09:43:20.446Z,15.77
2022-10-06T09:45:51.650Z,15.83
2022-10-06T09:48:24.757Z,15.91
2022-10-06T09:51:12.657Z,15.94
2022-10-06T09:53:41.846Z,15.90
2022-10-06T09:56:15.358Z,15.99
2022-10-06T09:58:54.287Z,16.05
2022-10-06T10:01:25.549Z,16.20
2022-10-06T10:04:20.613Z,16.27
2022-10-06T10:06:50.605Z,16.31
2022-10-06T10:09:28.383Z,16.46
2022-10-06T10:12:28.613Z,16.53
2022-10-06T10:14:59.663Z,16.60
2022-10-06T10:17:38.870Z,16.65
2022-10-06T10:20:24.246Z,16.86
2022-10-06T10:22:54.651Z,16.97
2022-10-06T10:25:53.960Z,16.98
2022-10-06T10:28:35.339Z,16.95
2022-10-06T10:31:10.322Z,17.04
2022-10-06T10:33:53.878Z,17.12
2022-10-06T10:36:38.074Z,17.27
2022-10-06T10:39:13.366Z,17.35
2022-10-06T10:41:45.165Z,17.48
2022-10-06T10:44:21.597Z,17.45
2022-10-06T10:46:54.873Z,17.49
2022-10-06T10:49:28.182Z,17.40
2022-10-06T10:51:59.820Z,17.48
2022-10-06T10:54:34.489Z,17.62
2022-10-06T10:57:03.548Z,17.71
2022-10-06T10:59:35.151Z,17.70
2022-10-06T11:02:10.922Z,17.57
2022-10-06T11:04:42.705Z,17.49
2022-10-06T11:07:19.603Z,17.41
2022-10-06T11:09:56.319Z,17.34
2022-10-06T11:12:37.147Z,17.31
2022-10-06T11:15:11.920Z,17.24
2022-10-06T11:17:45.130Z,17.27
2022-10-06T11:20:33.775Z,17.38
2022-10-06T11:23:14.945Z,17.65
2022-10-06T11:25:49.418Z,17.79
2022-10-06T11:28:20.903Z,17.77
2022-10-06T11:31:02.427Z,17.79
2022-10-06T11:33:34.590Z,17.90
2022-10-06T11:36:04.689Z,17.89
2022-10-06T11:38:38.396Z,17.81
2022-10-06T11:41:14.543Z,17.54
2022-10-06T11:43:49.038Z,17.48
2022-10-06T11:46:32.822Z,17.46
2022-10-06T11:49:39.474Z,17.58
2022-10-06T11:52:36.717Z,17.62
2022-10-06T11:55:10.565Z,17.60
2022-10-06T11:58:12.679Z,17.69
2022-10-06T12:00:52.384Z,17.60
2022-10-06T12:03:54.576Z,17.53
2022-10-06T12:06:58.652Z,17.50
2022-10-06T12:09:46.055Z,17.43
2022-10-06T12:13:06.892Z,17.43
2022-10-06T12:19:03.868Z,17.32
2022-10-06T12:21:53.582Z,17.37
2022-10-06T12:24:28.893Z,17.40
2022-10-06T12:27:25.111Z,17.48
2022-10-06T12:30:01.260Z,17.64
2022-10-06T12:32:40.706Z,17.89
2022-10-06T12:35:18.035Z,18.06
2022-10-06T12:37:53.821Z,18.08
2022-10-06T12:40:55.413Z,17.98
2022-10-06T12:43:50.027Z,18.14
2022-10-06T12:46:37.676Z,18.26
2022-10-06T12:49:23.195Z,18.25
2022-10-06T12:51:56.054Z,18.14
2022-10-06T12:54:33.201Z,18.09
2022-10-06T12:57:03.822Z,18.09
2022-10-06T12:59:33.830Z,18.07
2022-10-06T13:02:05.505Z,18.17
2022-10-06T13:04:38.350Z,18.23
2022-10-06T13:07:14.907Z,18.29
2022-10-06T13:09:43.743Z,18.17
2022-10-06T13:12:31.116Z,18.16
2022-10-06T13:15:16.125Z,18.17
2022-10-06T13:17:47.506Z,18.06
2022-10-06T13:20:24.285Z,17.99
2022-10-06T13:23:00.657Z,17.92
2022-10-06T13:25:35.726Z,17.74
2022-10-06T13:28:04.533Z,17.86
2022-10-06T13:30:38.417Z,18.06
2022-10-06T13:33:08.485Z,18.09
2022-10-06T13:35:38.755Z,18.14
2022-10-06T13:38:07.519Z,18.17
2022-10-06T13:40:45.055Z,18.29
2022-10-06T13:43:18.188Z,18.27
2022-10-06T13:45:48.329Z,18.39
2022-10-06T13:48:18.951Z,18.40
2022-10-06T13:50:50.024Z,18.31
2022-10-06T13:53:27.587Z,18.15
2022-10-06T13:55:56.551Z,18.23
2022-10-06T13:58:27.908Z,18.23
2022-10-06T14:00:58.086Z,18.15
2022-10-06T14:03:29.429Z,18.03
2022-10-06T14:06:16.949Z,18.08
2022-10-06T14:08:47.460Z,18.11
2022-10-06T14:11:22.683Z,18.19
2022-10-06T14:13:53.035Z,18.20
2022-10-06T14:16:23.397Z,18.19
2022-10-06T14:18:56.516Z,18.16
2022-10-06T14:21:45.650Z,18.13
2022-10-06T14:24:26.047Z,17.98
2022-10-06T14:26:55.793Z,17.94
2022-10-06T14:29:25.141Z,17.90
2022-10-06T14:31:55.151Z,17.89
2022-10-06T14:34:23.807Z,17.82
2022-10-06T14:36:55.380Z,17.73
2022-10-06T14:39:24.088Z,17.62
2022-10-06T14:41:52.938Z,17.63
2022-10-06T14:44:22.079Z,17.60
2022-10-06T14:46:51.388Z,17.50
2022-10-06T14:49:20.388Z,17.50
2022-10-06T14:51:49.104Z,17.48
2022-10-06T14:54:21.431Z,17.45
2022-10-06T14:56:53.477Z,17.44
2022-10-06T14:59:22.547Z,17.39
2022-10-06T15:01:51.234Z,17.46
2022-10-06T15:04:24.114Z,17.43
2022-10-06T15:07:10.517Z,17.43
2022-10-06T15:09:40.610Z,17.41
2022-10-06T15:12:09.306Z,17.38
2022-10-06T15:14:39.725Z,17.36
2022-10-06T15:17:08.662Z,17.33
2022-10-06T15:19:37.358Z,17.30
2022-10-06T15:22:08.755Z,17.21
2022-10-06T15:24:37.452Z,17.28
2022-10-06T15:27:27.529Z,17.21
2022-10-06T15:29:56.830Z,17.17
2022-10-06T15:32:25.655Z,17.09
2022-10-06T15:34:55.227Z,17.07
2022-10-06T15:37:23.897Z,16.98
2022-10-06T15:39:53.086Z,16.96
2022-10-06T15:42:25.162Z,16.95
2022-10-06T15:44:54.208Z,16.94
2022-10-06T15:47:23.659Z,16.90
2022-10-06T15:49:52.284Z,16.88
2022-10-06T15:52:20.975Z,16.89
2022-10-06T15:54:49.810Z,16.88
2022-10-06T15:57:21.246Z,17.00
2022-10-06T15:59:51.600Z,17.05
2022-10-06T16:02:21.109Z,17.08
2022-10-06T16:05:18.842Z,17.07
2022-10-06T16:07:47.745Z,16.96
2022-10-06T16:10:16.412Z,16.93
2022-10-06T16:12:45.090Z,16.85
2022-10-06T16:15:15.108Z,16.74
2022-10-06T16:17:43.724Z,16.69
2022-10-06T16:20:12.532Z,16.59
2022-10-06T16:22:41.773Z,16.60
2022-10-06T16:25:11.007Z,16.45
2022-10-06T16:27:40.104Z,16.45
2022-10-06T16:30:09.906Z,16.43
2022-10-06T16:32:40.285Z,16.36
2022-10-06T16:35:13.565Z,16.32
2022-10-06T16:37:49.181Z,16.24
2022-10-06T16:40:17.977Z,16.15
2022-10-06T16:42:46.601Z,16.17
2022-10-06T16:45:15.485Z,16.16
2022-10-06T16:47:45.860Z,16.14
2022-10-06T16:50:14.725Z,16.12
2022-10-06T16:52:43.478Z,15.97
2022-10-06T16:55:12.139Z,16.05
2022-10-06T16:57:40.742Z,16.03
2022-10-06T17:00:10.985Z,16.03
2022-10-06T17:02:41.086Z,16.04
2022-10-06T17:05:11.606Z,16.02
2022-10-06T17:07:40.287Z,15.99
2022-10-06T17:10:22.568Z,15.94
2022-10-06T17:12:51.316Z,15.87
2022-10-06T17:15:19.957Z,15.84
2022-10-06T17:17:48.867Z,15.81
2022-10-06T17:20:19.012Z,15.72
2022-10-06T17:22:48.600Z,15.78
2022-10-06T17:25:17.326Z,15.77
2022-10-06T17:27:46.032Z,15.70
2022-10-06T17:30:16.670Z,15.61
2022-10-06T17:32:46.998Z,15.65
2022-10-06T17:35:16.026Z,15.42
2022-10-06T17:37:45.987Z,15.66
2022-10-06T17:40:14.722Z,15.59
2022-10-06T17:42:43.694Z,15.59
2022-10-06T17:45:12.493Z,15.63
2022-10-06T17:47:41.463Z,15.52
2022-10-06T17:50:11.168Z,15.50
2022-10-06T17:52:40.199Z,15.50
2022-10-06T17:55:10.841Z,15.52
2022-10-06T17:57:39.984Z,15.45
2022-10-06T18:00:10.362Z,15.41
2022-10-06T18:02:40.515Z,15.39
2022-10-06T18:05:09.751Z,15.29
2022-10-06T18:07:38.449Z,15.30
2022-10-06T18:10:25.310Z,15.25
2022-10-06T18:12:55.278Z,15.24
2022-10-06T18:15:24.101Z,15.25
2022-10-06T18:17:53.315Z,15.21
2022-10-06T18:20:22.046Z,15.15
2022-10-06T18:22:50.833Z,15.19
2022-10-06T18:25:24.512Z,15.16
2022-10-06T18:27:56.774Z,15.07
2022-10-06T18:30:29.373Z,15.10
2022-10-06T18:35:23.702Z,14.99
2022-10-06T18:38:43.495Z,15.05
2022-10-06T18:41:15.097Z,15.06
2022-10-06T18:43:45.480Z,14.81
2022-10-06T18:46:33.170Z,14.95
2022-10-06T18:49:05.855Z,15.01
2022-10-06T18:51:36.061Z,15.01
2022-10-06T18:54:06.450Z,14.98
2022-10-06T18:56:37.084Z,14.87
2022-10-06T18:59:10.323Z,14.98
2022-10-06T19:01:41.393Z,14.94
2022-10-06T19:04:10.956Z,14.91
2022-10-06T19:06:42.530Z,14.87
2022-10-06T19:09:16.891Z,14.87
2022-10-06T19:11:51.772Z,14.87
2022-10-06T19:14:23.134Z,14.86
2022-10-06T19:16:56.266Z,14.77
2022-10-06T19:19:25.910Z,14.66
2022-10-06T19:21:57.083Z,14.78
2022-10-06T19:24:26.172Z,14.75
2022-10-06T19:26:56.391Z,14.80
2022-10-06T19:29:26.872Z,14.77
2022-10-06T19:31:58.567Z,14.70
2022-10-06T19:34:27.622Z,14.53
2022-10-06T19:36:58.252Z,14.73
2022-10-06T19:39:30.426Z,14.71
2022-10-06T19:42:17.166Z,14.67
2022-10-06T19:44:47.377Z,14.64
2022-10-06T19:47:16.644Z,14.56
2022-10-06T19:49:45.995Z,14.63
2022-10-06T19:52:15.133Z,14.55
2022-10-06T19:54:43.804Z,14.62
2022-10-06T19:57:12.826Z,14.55
2022-10-06T19:59:41.626Z,14.58
2022-10-06T20:02:13.011Z,14.58
2022-10-06T20:04:42.197Z,14.55
2022-10-06T20:07:10.893Z,14.28
2022-10-06T20:09:39.760Z,14.45
2022-10-06T20:12:08.442Z,14.45
2022-10-06T20:14:37.319Z,14.40
2022-10-06T20:17:06.444Z,14.41
2022-10-06T20:19:36.529Z,14.31
2022-10-06T20:22:06.033Z,14.15
2022-10-06T20:24:35.184Z,14.20
2022-10-06T20:27:03.897Z,14.09
2022-10-06T20:29:32.976Z,14.09
2022-10-06T20:32:01.779Z,14.08
2022-10-06T20:34:32.023Z,13.79
2022-10-06T20:37:03.480Z,13.98
2022-10-06T20:39:51.243Z,14.02
2022-10-06T20:42:20.826Z,14.01
2022-10-06T20:44:49.497Z,13.98
2022-10-06T20:47:18.305Z,14.00
2022-10-06T20:49:46.956Z,13.80
2022-10-06T20:52:16.979Z,13.86
2022-10-06T20:54:45.665Z,13.93
2022-10-06T20:57:14.334Z,13.92
2022-10-06T20:59:45.201Z,13.88
2022-10-06T21:02:14.067Z,13.84
2022-10-06T21:04:43.499Z,13.85
2022-10-06T21:07:12.263Z,13.85
2022-10-06T21:09:42.358Z,13.74
2022-10-06T21:12:11.552Z,13.82
2022-10-06T21:14:42.277Z,13.79
2022-10-06T21:17:11.770Z,13.79
2022-10-06T21:19:40.456Z,13.83
2022-10-06T21:22:09.072Z,13.75
2022-10-06T21:24:37.785Z,13.67
2022-10-06T21:27:07.809Z,13.73
2022-10-06T21:29:36.400Z,13.69
2022-10-06T21:32:05.063Z,13.63
2022-10-06T21:34:33.823Z,13.63
2022-10-06T21:37:02.552Z,13.62
2022-10-06T21:39:31.174Z,13.62
2022-10-06T21:41:59.756Z,13.59
2022-10-06T21:44:29.807Z,13.60
2022-10-06T21:47:02.434Z,13.57
2022-10-06T21:49:31.174Z,13.36
2022-10-06T21:52:04.564Z,13.39
2022-10-06T21:54:34.109Z,13.22
2022-10-06T21:57:02.756Z,13.36
2022-10-06T21:59:32.811Z,13.35
2022-10-06T22:02:01.602Z,13.36
2022-10-06T22:04:30.254Z,13.36
2022-10-06T22:06:58.892Z,13.30
2022-10-06T22:09:27.523Z,13.25
2022-10-06T22:11:56.124Z,13.12
2022-10-06T22:14:24.822Z,13.23
2022-10-06T22:16:58.270Z,13.19
2022-10-06T22:19:27.032Z,13.10
2022-10-06T22:21:55.657Z,13.13
2022-10-06T22:24:24.746Z,13.16
2022-10-06T22:26:53.531Z,13.11
2022-10-06T22:29:22.155Z,13.13
2022-10-06T22:31:50.942Z,13.07
2022-10-06T22:34:21.833Z,13.12
2022-10-06T22:36:50.465Z,13.14
2022-10-06T22:39:19.130Z,13.17
2022-10-06T22:41:47.822Z,13.08
2022-10-06T22:44:16.439Z,13.19
2022-10-06T22:46:45.211Z,13.19
2022-10-06T22:49:14.085Z,13.09
2022-10-06T22:51:44.093Z,13.22
2022-10-06T22:54:18.329Z,13.14
2022-10-06T22:56:47.127Z,13.19
2022-10-06T22:59:15.805Z,13.09
2022-10-06T23:01:44.465Z,13.23
2022-10-06T23:04:13.167Z,13.22
2022-10-06T23:06:41.774Z,13.20
2022-10-06T23:09:12.712Z,13.12
2022-10-06T23:11:41.361Z,13.14
2022-10-06T23:14:09.976Z,13.10
2022-10-06T23:16:38.664Z,13.10
2022-10-06T23:19:07.378Z,13.02
2022-10-06T23:21:39.718Z,13.04
2022-10-06T23:24:08.426Z,12.93
2022-10-06T23:26:38.428Z,13.00
2022-10-06T23:29:07.521Z,12.94
2022-10-06T23:31:36.160Z,12.95
2022-10-06T23:34:04.778Z,12.93
2022-10-06T23:36:33.500Z,12.95
2022-10-06T23:39:02.165Z,12.99
2022-10-06T23:41:30.810Z,12.95
2022-10-06T23:44:00.953Z,12.98
2022-10-06T23:46:29.574Z,12.89
2022-10-06T23:48:58.383Z,12.96
2022-10-06T23:51:27.357Z,12.98
2022-10-06T23:53:55.983Z,12.99
2022-10-06T23:56:25.376Z,12.97
2022-10-06T23:58:54.026Z,12.92
